<?xml version="1.0" encoding="UTF-8" standalone="no" ?>
<gpx xmlns="http://www.topografix.com/GPX/1/1" xmlns:xsi="http://www.w3.org/2001/XMLSchema-instance" xsi:schemaLocation="http://www.topografix.com/GPX/1/1 http://www.topografix.com/GPX/1/1/gpx.xsd" version="1.1" creator="VisuGPX - https://www.visugpx.com">
  <metadata>
    <name>Balade vélo CahagnesAnctoville-Torteval-Caumont-Les Loges-Cahagnes</name>
    <desc><![CDATA[Petite balade dans le bocage normand.]]></desc>
  </metadata>
  <trk>
    <name><![CDATA[CahagnesAnctoville-Torteval-Caumont-Les Loges-Cahagnes]]></name>
    <trkseg>
      <trkpt lat="49.06605" lon="-0.77133">
        <ele>182</ele>
        <time>2014-07-21T08:00:21Z</time>
      </trkpt>
      <trkpt lat="49.06587" lon="-0.7711">
        <ele>182</ele>
        <time>2014-07-21T08:00:31Z</time>
      </trkpt>
      <trkpt lat="49.0656" lon="-0.77075">
        <ele>181</ele>
        <time>2014-07-21T08:00:41Z</time>
      </trkpt>
      <trkpt lat="49.06538" lon="-0.77008">
        <ele>179</ele>
        <time>2014-07-21T08:00:51Z</time>
      </trkpt>
      <trkpt lat="49.06523" lon="-0.76977">
        <ele>177</ele>
        <time>2014-07-21T08:01:01Z</time>
      </trkpt>
      <trkpt lat="49.06545" lon="-0.76935">
        <ele>177</ele>
        <time>2014-07-21T08:01:11Z</time>
      </trkpt>
      <trkpt lat="49.06577" lon="-0.76915">
        <ele>177</ele>
        <time>2014-07-21T08:01:22Z</time>
      </trkpt>
      <trkpt lat="49.06611" lon="-0.7693">
        <ele>179</ele>
        <time>2014-07-21T08:01:33Z</time>
      </trkpt>
      <trkpt lat="49.06631" lon="-0.76888">
        <ele>180</ele>
        <time>2014-07-21T08:01:43Z</time>
      </trkpt>
      <trkpt lat="49.06654" lon="-0.76841">
        <ele>180</ele>
        <time>2014-07-21T08:01:54Z</time>
      </trkpt>
      <trkpt lat="49.06644" lon="-0.7681">
        <ele>180</ele>
        <time>2014-07-21T08:02:04Z</time>
      </trkpt>
      <trkpt lat="49.06601" lon="-0.76769">
        <ele>177</ele>
        <time>2014-07-21T08:02:15Z</time>
      </trkpt>
      <trkpt lat="49.06554" lon="-0.76757">
        <ele>174</ele>
        <time>2014-07-21T08:02:25Z</time>
      </trkpt>
      <trkpt lat="49.06567" lon="-0.76708">
        <ele>172</ele>
        <time>2014-07-21T08:02:36Z</time>
      </trkpt>
      <trkpt lat="49.06605" lon="-0.76669">
        <ele>173</ele>
        <time>2014-07-21T08:02:46Z</time>
      </trkpt>
      <trkpt lat="49.06646" lon="-0.7664">
        <ele>175</ele>
        <time>2014-07-21T08:02:57Z</time>
      </trkpt>
      <trkpt lat="49.06675" lon="-0.76585">
        <ele>175</ele>
        <time>2014-07-21T08:03:07Z</time>
      </trkpt>
      <trkpt lat="49.06714" lon="-0.76525">
        <ele>175</ele>
        <time>2014-07-21T08:03:18Z</time>
      </trkpt>
      <trkpt lat="49.06748" lon="-0.76467">
        <ele>175</ele>
        <time>2014-07-21T08:03:28Z</time>
      </trkpt>
      <trkpt lat="49.06784" lon="-0.7639">
        <ele>175</ele>
        <time>2014-07-21T08:03:38Z</time>
      </trkpt>
      <trkpt lat="49.06841" lon="-0.76329">
        <ele>173</ele>
        <time>2014-07-21T08:03:49Z</time>
      </trkpt>
      <trkpt lat="49.06901" lon="-0.76366">
        <ele>175</ele>
        <time>2014-07-21T08:04:00Z</time>
      </trkpt>
      <trkpt lat="49.06945" lon="-0.76397">
        <ele>176</ele>
        <time>2014-07-21T08:04:10Z</time>
      </trkpt>
      <trkpt lat="49.06991" lon="-0.76432">
        <ele>180</ele>
        <time>2014-07-21T08:04:21Z</time>
      </trkpt>
      <trkpt lat="49.07033" lon="-0.76463">
        <ele>182</ele>
        <time>2014-07-21T08:04:31Z</time>
      </trkpt>
      <trkpt lat="49.0709" lon="-0.76468">
        <ele>183</ele>
        <time>2014-07-21T08:04:42Z</time>
      </trkpt>
      <trkpt lat="49.07138" lon="-0.76457">
        <ele>185</ele>
        <time>2014-07-21T08:04:52Z</time>
      </trkpt>
      <trkpt lat="49.07189" lon="-0.76449">
        <ele>186</ele>
        <time>2014-07-21T08:05:02Z</time>
      </trkpt>
      <trkpt lat="49.07247" lon="-0.76442">
        <ele>186</ele>
        <time>2014-07-21T08:05:13Z</time>
      </trkpt>
      <trkpt lat="49.07306" lon="-0.76435">
        <ele>186</ele>
        <time>2014-07-21T08:05:24Z</time>
      </trkpt>
      <trkpt lat="49.0737" lon="-0.76428">
        <ele>186</ele>
        <time>2014-07-21T08:05:35Z</time>
      </trkpt>
      <trkpt lat="49.07431" lon="-0.76402">
        <ele>185</ele>
        <time>2014-07-21T08:05:45Z</time>
      </trkpt>
      <trkpt lat="49.07492" lon="-0.7637">
        <ele>185</ele>
        <time>2014-07-21T08:05:55Z</time>
      </trkpt>
      <trkpt lat="49.07564" lon="-0.76335">
        <ele>183</ele>
        <time>2014-07-21T08:06:06Z</time>
      </trkpt>
      <trkpt lat="49.07637" lon="-0.76298">
        <ele>181</ele>
        <time>2014-07-21T08:06:16Z</time>
      </trkpt>
      <trkpt lat="49.07716" lon="-0.76262">
        <ele>178</ele>
        <time>2014-07-21T08:06:26Z</time>
      </trkpt>
      <trkpt lat="49.07804" lon="-0.76215">
        <ele>175</ele>
        <time>2014-07-21T08:06:36Z</time>
      </trkpt>
      <trkpt lat="49.07902" lon="-0.76181">
        <ele>170</ele>
        <time>2014-07-21T08:06:46Z</time>
      </trkpt>
      <trkpt lat="49.08001" lon="-0.76159">
        <ele>166</ele>
        <time>2014-07-21T08:06:56Z</time>
      </trkpt>
      <trkpt lat="49.08086" lon="-0.76129">
        <ele>164</ele>
        <time>2014-07-21T08:07:06Z</time>
      </trkpt>
      <trkpt lat="49.0816" lon="-0.76084">
        <ele>164</ele>
        <time>2014-07-21T08:07:16Z</time>
      </trkpt>
      <trkpt lat="49.08231" lon="-0.76061">
        <ele>163</ele>
        <time>2014-07-21T08:07:26Z</time>
      </trkpt>
      <trkpt lat="49.08305" lon="-0.76047">
        <ele>163</ele>
        <time>2014-07-21T08:07:36Z</time>
      </trkpt>
      <trkpt lat="49.08388" lon="-0.76051">
        <ele>162</ele>
        <time>2014-07-21T08:07:47Z</time>
      </trkpt>
      <trkpt lat="49.08456" lon="-0.76001">
        <ele>161</ele>
        <time>2014-07-21T08:07:57Z</time>
      </trkpt>
      <trkpt lat="49.08528" lon="-0.75942">
        <ele>160</ele>
        <time>2014-07-21T08:08:08Z</time>
      </trkpt>
      <trkpt lat="49.08598" lon="-0.75904">
        <ele>159</ele>
        <time>2014-07-21T08:08:18Z</time>
      </trkpt>
      <trkpt lat="49.08674" lon="-0.75871">
        <ele>156</ele>
        <time>2014-07-21T08:08:28Z</time>
      </trkpt>
      <trkpt lat="49.0875" lon="-0.75843">
        <ele>154</ele>
        <time>2014-07-21T08:08:38Z</time>
      </trkpt>
      <trkpt lat="49.08832" lon="-0.75821">
        <ele>150</ele>
        <time>2014-07-21T08:08:48Z</time>
      </trkpt>
      <trkpt lat="49.08919" lon="-0.75799">
        <ele>146</ele>
        <time>2014-07-21T08:08:58Z</time>
      </trkpt>
      <trkpt lat="49.09016" lon="-0.75776">
        <ele>141</ele>
        <time>2014-07-21T08:09:08Z</time>
      </trkpt>
      <trkpt lat="49.09087" lon="-0.7573">
        <ele>135</ele>
        <time>2014-07-21T08:09:18Z</time>
      </trkpt>
      <trkpt lat="49.09156" lon="-0.75694">
        <ele>130</ele>
        <time>2014-07-21T08:09:28Z</time>
      </trkpt>
      <trkpt lat="49.09203" lon="-0.75714">
        <ele>127</ele>
        <time>2014-07-21T08:09:38Z</time>
      </trkpt>
      <trkpt lat="49.09255" lon="-0.75766">
        <ele>129</ele>
        <time>2014-07-21T08:09:48Z</time>
      </trkpt>
      <trkpt lat="49.09298" lon="-0.7581">
        <ele>132</ele>
        <time>2014-07-21T08:09:59Z</time>
      </trkpt>
      <trkpt lat="49.0933" lon="-0.75849">
        <ele>135</ele>
        <time>2014-07-21T08:10:09Z</time>
      </trkpt>
      <trkpt lat="49.09357" lon="-0.75883">
        <ele>137</ele>
        <time>2014-07-21T08:10:19Z</time>
      </trkpt>
      <trkpt lat="49.09391" lon="-0.75921">
        <ele>139</ele>
        <time>2014-07-21T08:10:30Z</time>
      </trkpt>
      <trkpt lat="49.09423" lon="-0.75956">
        <ele>142</ele>
        <time>2014-07-21T08:10:40Z</time>
      </trkpt>
      <trkpt lat="49.09453" lon="-0.7599">
        <ele>145</ele>
        <time>2014-07-21T08:10:50Z</time>
      </trkpt>
      <trkpt lat="49.09485" lon="-0.76025">
        <ele>147</ele>
        <time>2014-07-21T08:11:01Z</time>
      </trkpt>
      <trkpt lat="49.09517" lon="-0.76007">
        <ele>149</ele>
        <time>2014-07-21T08:11:11Z</time>
      </trkpt>
      <trkpt lat="49.09537" lon="-0.75955">
        <ele>150</ele>
        <time>2014-07-21T08:11:21Z</time>
      </trkpt>
      <trkpt lat="49.09568" lon="-0.75903">
        <ele>150</ele>
        <time>2014-07-21T08:11:32Z</time>
      </trkpt>
      <trkpt lat="49.09599" lon="-0.75855">
        <ele>151</ele>
        <time>2014-07-21T08:11:42Z</time>
      </trkpt>
      <trkpt lat="49.09633" lon="-0.75797">
        <ele>152</ele>
        <time>2014-07-21T08:11:53Z</time>
      </trkpt>
      <trkpt lat="49.09659" lon="-0.75714">
        <ele>153</ele>
        <time>2014-07-21T08:12:04Z</time>
      </trkpt>
      <trkpt lat="49.09678" lon="-0.7563">
        <ele>152</ele>
        <time>2014-07-21T08:12:14Z</time>
      </trkpt>
      <trkpt lat="49.09674" lon="-0.75543">
        <ele>152</ele>
        <time>2014-07-21T08:12:24Z</time>
      </trkpt>
      <trkpt lat="49.0966" lon="-0.75456">
        <ele>151</ele>
        <time>2014-07-21T08:12:34Z</time>
      </trkpt>
      <trkpt lat="49.09645" lon="-0.75366">
        <ele>151</ele>
        <time>2014-07-21T08:12:45Z</time>
      </trkpt>
      <trkpt lat="49.0964" lon="-0.75272">
        <ele>151</ele>
        <time>2014-07-21T08:12:55Z</time>
      </trkpt>
      <trkpt lat="49.09657" lon="-0.75177">
        <ele>152</ele>
        <time>2014-07-21T08:13:05Z</time>
      </trkpt>
      <trkpt lat="49.09676" lon="-0.75081">
        <ele>153</ele>
        <time>2014-07-21T08:13:16Z</time>
      </trkpt>
      <trkpt lat="49.09693" lon="-0.74985">
        <ele>154</ele>
        <time>2014-07-21T08:13:27Z</time>
      </trkpt>
      <trkpt lat="49.09703" lon="-0.74898">
        <ele>156</ele>
        <time>2014-07-21T08:13:38Z</time>
      </trkpt>
      <trkpt lat="49.09715" lon="-0.74825">
        <ele>158</ele>
        <time>2014-07-21T08:13:48Z</time>
      </trkpt>
      <trkpt lat="49.09729" lon="-0.7474">
        <ele>158</ele>
        <time>2014-07-21T08:13:59Z</time>
      </trkpt>
      <trkpt lat="49.09736" lon="-0.74656">
        <ele>159</ele>
        <time>2014-07-21T08:14:09Z</time>
      </trkpt>
      <trkpt lat="49.09749" lon="-0.74549">
        <ele>157</ele>
        <time>2014-07-21T08:14:20Z</time>
      </trkpt>
      <trkpt lat="49.09764" lon="-0.74424">
        <ele>155</ele>
        <time>2014-07-21T08:14:30Z</time>
      </trkpt>
      <trkpt lat="49.09761" lon="-0.74266">
        <ele>150</ele>
        <time>2014-07-21T08:14:40Z</time>
      </trkpt>
      <trkpt lat="49.09798" lon="-0.74102">
        <ele>146</ele>
        <time>2014-07-21T08:14:50Z</time>
      </trkpt>
      <trkpt lat="49.09838" lon="-0.73939">
        <ele>141</ele>
        <time>2014-07-21T08:15:01Z</time>
      </trkpt>
      <trkpt lat="49.09872" lon="-0.73814">
        <ele>139</ele>
        <time>2014-07-21T08:15:11Z</time>
      </trkpt>
      <trkpt lat="49.09901" lon="-0.73713">
        <ele>138</ele>
        <time>2014-07-21T08:15:21Z</time>
      </trkpt>
      <trkpt lat="49.09916" lon="-0.73603">
        <ele>137</ele>
        <time>2014-07-21T08:15:31Z</time>
      </trkpt>
      <trkpt lat="49.09923" lon="-0.73478">
        <ele>136</ele>
        <time>2014-07-21T08:15:41Z</time>
      </trkpt>
      <trkpt lat="49.09957" lon="-0.73333">
        <ele>132</ele>
        <time>2014-07-21T08:15:52Z</time>
      </trkpt>
      <trkpt lat="49.10005" lon="-0.73189">
        <ele>129</ele>
        <time>2014-07-21T08:16:02Z</time>
      </trkpt>
      <trkpt lat="49.10048" lon="-0.73068">
        <ele>127</ele>
        <time>2014-07-21T08:16:12Z</time>
      </trkpt>
      <trkpt lat="49.10063" lon="-0.72923">
        <ele>123</ele>
        <time>2014-07-21T08:16:23Z</time>
      </trkpt>
      <trkpt lat="49.10063" lon="-0.72774">
        <ele>121</ele>
        <time>2014-07-21T08:16:34Z</time>
      </trkpt>
      <trkpt lat="49.10062" lon="-0.72643">
        <ele>118</ele>
        <time>2014-07-21T08:16:44Z</time>
      </trkpt>
      <trkpt lat="49.1006" lon="-0.72511">
        <ele>117</ele>
        <time>2014-07-21T08:16:55Z</time>
      </trkpt>
      <trkpt lat="49.10098" lon="-0.72398">
        <ele>117</ele>
        <time>2014-07-21T08:17:05Z</time>
      </trkpt>
      <trkpt lat="49.10129" lon="-0.72258">
        <ele>115</ele>
        <time>2014-07-21T08:17:16Z</time>
      </trkpt>
      <trkpt lat="49.10147" lon="-0.72141">
        <ele>117</ele>
        <time>2014-07-21T08:17:26Z</time>
      </trkpt>
      <trkpt lat="49.10182" lon="-0.72026">
        <ele>116</ele>
        <time>2014-07-21T08:17:37Z</time>
      </trkpt>
      <trkpt lat="49.10227" lon="-0.71916">
        <ele>115</ele>
        <time>2014-07-21T08:17:47Z</time>
      </trkpt>
      <trkpt lat="49.10278" lon="-0.71815">
        <ele>114</ele>
        <time>2014-07-21T08:17:57Z</time>
      </trkpt>
      <trkpt lat="49.1034" lon="-0.71719">
        <ele>112</ele>
        <time>2014-07-21T08:18:08Z</time>
      </trkpt>
      <trkpt lat="49.10388" lon="-0.71632">
        <ele>110</ele>
        <time>2014-07-21T08:18:19Z</time>
      </trkpt>
      <trkpt lat="49.10418" lon="-0.71545">
        <ele>110</ele>
        <time>2014-07-21T08:18:29Z</time>
      </trkpt>
      <trkpt lat="49.10441" lon="-0.7146">
        <ele>111</ele>
        <time>2014-07-21T08:18:39Z</time>
      </trkpt>
      <trkpt lat="49.10465" lon="-0.71323">
        <ele>109</ele>
        <time>2014-07-21T08:18:50Z</time>
      </trkpt>
      <trkpt lat="49.10493" lon="-0.71204">
        <ele>109</ele>
        <time>2014-07-21T08:19:00Z</time>
      </trkpt>
      <trkpt lat="49.10523" lon="-0.71077">
        <ele>108</ele>
        <time>2014-07-21T08:19:11Z</time>
      </trkpt>
      <trkpt lat="49.10557" lon="-0.70958">
        <ele>109</ele>
        <time>2014-07-21T08:19:22Z</time>
      </trkpt>
      <trkpt lat="49.10572" lon="-0.70843">
        <ele>108</ele>
        <time>2014-07-21T08:19:32Z</time>
      </trkpt>
      <trkpt lat="49.10567" lon="-0.70732">
        <ele>108</ele>
        <time>2014-07-21T08:19:43Z</time>
      </trkpt>
      <trkpt lat="49.10565" lon="-0.70709">
        <ele>110</ele>
        <time>2014-07-21T08:19:53Z</time>
      </trkpt>
      <trkpt lat="49.10572" lon="-0.70698">
        <ele>111</ele>
        <time>2014-07-21T08:20:03Z</time>
      </trkpt>
      <trkpt lat="49.10593" lon="-0.70685">
        <ele>112</ele>
        <time>2014-07-21T08:20:14Z</time>
      </trkpt>
      <trkpt lat="49.10614" lon="-0.70653">
        <ele>115</ele>
        <time>2014-07-21T08:20:24Z</time>
      </trkpt>
      <trkpt lat="49.10635" lon="-0.7062">
        <ele>117</ele>
        <time>2014-07-21T08:20:34Z</time>
      </trkpt>
      <trkpt lat="49.10659" lon="-0.70597">
        <ele>120</ele>
        <time>2014-07-21T08:20:44Z</time>
      </trkpt>
      <trkpt lat="49.10688" lon="-0.70594">
        <ele>123</ele>
        <time>2014-07-21T08:20:54Z</time>
      </trkpt>
      <trkpt lat="49.10717" lon="-0.70594">
        <ele>126</ele>
        <time>2014-07-21T08:21:04Z</time>
      </trkpt>
      <trkpt lat="49.10749" lon="-0.70594">
        <ele>128</ele>
        <time>2014-07-21T08:21:15Z</time>
      </trkpt>
      <trkpt lat="49.10781" lon="-0.70597">
        <ele>130</ele>
        <time>2014-07-21T08:21:26Z</time>
      </trkpt>
      <trkpt lat="49.10813" lon="-0.70598">
        <ele>132</ele>
        <time>2014-07-21T08:21:36Z</time>
      </trkpt>
      <trkpt lat="49.10849" lon="-0.706">
        <ele>134</ele>
        <time>2014-07-21T08:21:47Z</time>
      </trkpt>
      <trkpt lat="49.10878" lon="-0.70601">
        <ele>135</ele>
        <time>2014-07-21T08:21:57Z</time>
      </trkpt>
      <trkpt lat="49.10917" lon="-0.70604">
        <ele>137</ele>
        <time>2014-07-21T08:22:08Z</time>
      </trkpt>
      <trkpt lat="49.10953" lon="-0.70606">
        <ele>138</ele>
        <time>2014-07-21T08:22:19Z</time>
      </trkpt>
      <trkpt lat="49.10981" lon="-0.70609">
        <ele>141</ele>
        <time>2014-07-21T08:22:29Z</time>
      </trkpt>
      <trkpt lat="49.11008" lon="-0.70611">
        <ele>143</ele>
        <time>2014-07-21T08:22:40Z</time>
      </trkpt>
      <trkpt lat="49.11022" lon="-0.70612">
        <ele>146</ele>
        <time>2014-07-21T08:22:50Z</time>
      </trkpt>
      <trkpt lat="49.11023" lon="-0.70612">
        <ele>146</ele>
        <time>2014-07-21T08:23:02Z</time>
      </trkpt>
      <trkpt lat="49.11023" lon="-0.70611">
        <ele>145</ele>
        <time>2014-07-21T08:23:14Z</time>
      </trkpt>
      <trkpt lat="49.11034" lon="-0.70612">
        <ele>146</ele>
        <time>2014-07-21T08:23:24Z</time>
      </trkpt>
      <trkpt lat="49.11057" lon="-0.70614">
        <ele>148</ele>
        <time>2014-07-21T08:23:35Z</time>
      </trkpt>
      <trkpt lat="49.11079" lon="-0.70615">
        <ele>150</ele>
        <time>2014-07-21T08:23:45Z</time>
      </trkpt>
      <trkpt lat="49.11103" lon="-0.70617">
        <ele>153</ele>
        <time>2014-07-21T08:23:56Z</time>
      </trkpt>
      <trkpt lat="49.11128" lon="-0.70617">
        <ele>155</ele>
        <time>2014-07-21T08:24:07Z</time>
      </trkpt>
      <trkpt lat="49.11152" lon="-0.70619">
        <ele>159</ele>
        <time>2014-07-21T08:24:17Z</time>
      </trkpt>
      <trkpt lat="49.11182" lon="-0.70636">
        <ele>161</ele>
        <time>2014-07-21T08:24:28Z</time>
      </trkpt>
      <trkpt lat="49.11214" lon="-0.70664">
        <ele>161</ele>
        <time>2014-07-21T08:24:38Z</time>
      </trkpt>
      <trkpt lat="49.11247" lon="-0.70696">
        <ele>161</ele>
        <time>2014-07-21T08:24:48Z</time>
      </trkpt>
      <trkpt lat="49.1129" lon="-0.70738">
        <ele>161</ele>
        <time>2014-07-21T08:24:59Z</time>
      </trkpt>
      <trkpt lat="49.11361" lon="-0.70798">
        <ele>158</ele>
        <time>2014-07-21T08:25:10Z</time>
      </trkpt>
      <trkpt lat="49.11483" lon="-0.70852">
        <ele>150</ele>
        <time>2014-07-21T08:25:21Z</time>
      </trkpt>
      <trkpt lat="49.11608" lon="-0.7092">
        <ele>136</ele>
        <time>2014-07-21T08:25:31Z</time>
      </trkpt>
      <trkpt lat="49.11736" lon="-0.70998">
        <ele>126</ele>
        <time>2014-07-21T08:25:42Z</time>
      </trkpt>
      <trkpt lat="49.11822" lon="-0.71049">
        <ele>122</ele>
        <time>2014-07-21T08:25:52Z</time>
      </trkpt>
      <trkpt lat="49.11856" lon="-0.7108">
        <ele>124</ele>
        <time>2014-07-21T08:26:03Z</time>
      </trkpt>
      <trkpt lat="49.11805" lon="-0.71042">
        <ele>122</ele>
        <time>2014-07-21T08:26:14Z</time>
      </trkpt>
      <trkpt lat="49.11752" lon="-0.70997">
        <ele>120</ele>
        <time>2014-07-21T08:26:25Z</time>
      </trkpt>
      <trkpt lat="49.11784" lon="-0.70924">
        <ele>118</ele>
        <time>2014-07-21T08:26:36Z</time>
      </trkpt>
      <trkpt lat="49.11808" lon="-0.70837">
        <ele>118</ele>
        <time>2014-07-21T08:26:46Z</time>
      </trkpt>
      <trkpt lat="49.11828" lon="-0.70729">
        <ele>118</ele>
        <time>2014-07-21T08:26:57Z</time>
      </trkpt>
      <trkpt lat="49.11831" lon="-0.70634">
        <ele>119</ele>
        <time>2014-07-21T08:27:07Z</time>
      </trkpt>
      <trkpt lat="49.1182" lon="-0.70541">
        <ele>120</ele>
        <time>2014-07-21T08:27:18Z</time>
      </trkpt>
      <trkpt lat="49.11837" lon="-0.70442">
        <ele>120</ele>
        <time>2014-07-21T08:27:29Z</time>
      </trkpt>
      <trkpt lat="49.11856" lon="-0.70357">
        <ele>121</ele>
        <time>2014-07-21T08:27:39Z</time>
      </trkpt>
      <trkpt lat="49.1189" lon="-0.70272">
        <ele>120</ele>
        <time>2014-07-21T08:27:49Z</time>
      </trkpt>
      <trkpt lat="49.11922" lon="-0.70161">
        <ele>119</ele>
        <time>2014-07-21T08:28:00Z</time>
      </trkpt>
      <trkpt lat="49.11944" lon="-0.7007">
        <ele>120</ele>
        <time>2014-07-21T08:28:10Z</time>
      </trkpt>
      <trkpt lat="49.11972" lon="-0.69973">
        <ele>119</ele>
        <time>2014-07-21T08:28:20Z</time>
      </trkpt>
      <trkpt lat="49.12007" lon="-0.6985">
        <ele>118</ele>
        <time>2014-07-21T08:28:31Z</time>
      </trkpt>
      <trkpt lat="49.12027" lon="-0.69723">
        <ele>117</ele>
        <time>2014-07-21T08:28:42Z</time>
      </trkpt>
      <trkpt lat="49.12038" lon="-0.69591">
        <ele>112</ele>
        <time>2014-07-21T08:28:53Z</time>
      </trkpt>
      <trkpt lat="49.12013" lon="-0.69524">
        <ele>113</ele>
        <time>2014-07-21T08:29:03Z</time>
      </trkpt>
      <trkpt lat="49.11987" lon="-0.69475">
        <ele>117</ele>
        <time>2014-07-21T08:29:13Z</time>
      </trkpt>
      <trkpt lat="49.11962" lon="-0.69431">
        <ele>119</ele>
        <time>2014-07-21T08:29:23Z</time>
      </trkpt>
      <trkpt lat="49.11935" lon="-0.69389">
        <ele>122</ele>
        <time>2014-07-21T08:29:34Z</time>
      </trkpt>
      <trkpt lat="49.1191" lon="-0.69351">
        <ele>123</ele>
        <time>2014-07-21T08:29:44Z</time>
      </trkpt>
      <trkpt lat="49.11887" lon="-0.69316">
        <ele>126</ele>
        <time>2014-07-21T08:29:54Z</time>
      </trkpt>
      <trkpt lat="49.11863" lon="-0.69279">
        <ele>127</ele>
        <time>2014-07-21T08:30:04Z</time>
      </trkpt>
      <trkpt lat="49.11834" lon="-0.69228">
        <ele>128</ele>
        <time>2014-07-21T08:30:15Z</time>
      </trkpt>
      <trkpt lat="49.11802" lon="-0.69166">
        <ele>128</ele>
        <time>2014-07-21T08:30:26Z</time>
      </trkpt>
      <trkpt lat="49.11763" lon="-0.691">
        <ele>127</ele>
        <time>2014-07-21T08:30:36Z</time>
      </trkpt>
      <trkpt lat="49.11702" lon="-0.69004">
        <ele>124</ele>
        <time>2014-07-21T08:30:47Z</time>
      </trkpt>
      <trkpt lat="49.11736" lon="-0.689">
        <ele>122</ele>
        <time>2014-07-21T08:30:58Z</time>
      </trkpt>
      <trkpt lat="49.11772" lon="-0.68812">
        <ele>122</ele>
        <time>2014-07-21T08:31:08Z</time>
      </trkpt>
      <trkpt lat="49.11803" lon="-0.68691">
        <ele>119</ele>
        <time>2014-07-21T08:31:18Z</time>
      </trkpt>
      <trkpt lat="49.11833" lon="-0.68554">
        <ele>117</ele>
        <time>2014-07-21T08:31:29Z</time>
      </trkpt>
      <trkpt lat="49.11853" lon="-0.68449">
        <ele>118</ele>
        <time>2014-07-21T08:31:39Z</time>
      </trkpt>
      <trkpt lat="49.1185" lon="-0.68344">
        <ele>119</ele>
        <time>2014-07-21T08:31:50Z</time>
      </trkpt>
      <trkpt lat="49.11844" lon="-0.68247">
        <ele>121</ele>
        <time>2014-07-21T08:32:00Z</time>
      </trkpt>
      <trkpt lat="49.11838" lon="-0.68137">
        <ele>121</ele>
        <time>2014-07-21T08:32:11Z</time>
      </trkpt>
      <trkpt lat="49.11845" lon="-0.6804">
        <ele>121</ele>
        <time>2014-07-21T08:32:21Z</time>
      </trkpt>
      <trkpt lat="49.11857" lon="-0.67936">
        <ele>121</ele>
        <time>2014-07-21T08:32:31Z</time>
      </trkpt>
      <trkpt lat="49.11875" lon="-0.67818">
        <ele>121</ele>
        <time>2014-07-21T08:32:42Z</time>
      </trkpt>
      <trkpt lat="49.119" lon="-0.67703">
        <ele>118</ele>
        <time>2014-07-21T08:32:52Z</time>
      </trkpt>
      <trkpt lat="49.11935" lon="-0.67577">
        <ele>117</ele>
        <time>2014-07-21T08:33:03Z</time>
      </trkpt>
      <trkpt lat="49.11965" lon="-0.67463">
        <ele>116</ele>
        <time>2014-07-21T08:33:13Z</time>
      </trkpt>
      <trkpt lat="49.11991" lon="-0.67358">
        <ele>116</ele>
        <time>2014-07-21T08:33:23Z</time>
      </trkpt>
      <trkpt lat="49.12006" lon="-0.67276">
        <ele>115</ele>
        <time>2014-07-21T08:33:34Z</time>
      </trkpt>
      <trkpt lat="49.12013" lon="-0.67238">
        <ele>116</ele>
        <time>2014-07-21T08:33:44Z</time>
      </trkpt>
      <trkpt lat="49.12022" lon="-0.67169">
        <ele>116</ele>
        <time>2014-07-21T08:33:54Z</time>
      </trkpt>
      <trkpt lat="49.12026" lon="-0.67076">
        <ele>117</ele>
        <time>2014-07-21T08:34:05Z</time>
      </trkpt>
      <trkpt lat="49.12056" lon="-0.66989">
        <ele>117</ele>
        <time>2014-07-21T08:34:16Z</time>
      </trkpt>
      <trkpt lat="49.12082" lon="-0.66912">
        <ele>118</ele>
        <time>2014-07-21T08:34:26Z</time>
      </trkpt>
      <trkpt lat="49.12133" lon="-0.66851">
        <ele>119</ele>
        <time>2014-07-21T08:34:37Z</time>
      </trkpt>
      <trkpt lat="49.12192" lon="-0.66805">
        <ele>119</ele>
        <time>2014-07-21T08:34:48Z</time>
      </trkpt>
      <trkpt lat="49.12247" lon="-0.66749">
        <ele>119</ele>
        <time>2014-07-21T08:34:59Z</time>
      </trkpt>
      <trkpt lat="49.12303" lon="-0.6669">
        <ele>119</ele>
        <time>2014-07-21T08:35:10Z</time>
      </trkpt>
      <trkpt lat="49.12359" lon="-0.66631">
        <ele>119</ele>
        <time>2014-07-21T08:35:20Z</time>
      </trkpt>
      <trkpt lat="49.12434" lon="-0.66595">
        <ele>118</ele>
        <time>2014-07-21T08:35:31Z</time>
      </trkpt>
      <trkpt lat="49.12512" lon="-0.66585">
        <ele>117</ele>
        <time>2014-07-21T08:35:42Z</time>
      </trkpt>
      <trkpt lat="49.12582" lon="-0.66577">
        <ele>114</ele>
        <time>2014-07-21T08:35:52Z</time>
      </trkpt>
      <trkpt lat="49.12657" lon="-0.66568">
        <ele>108</ele>
        <time>2014-07-21T08:36:03Z</time>
      </trkpt>
      <trkpt lat="49.12677" lon="-0.66574">
        <ele>105</ele>
        <time>2014-07-21T08:36:13Z</time>
      </trkpt>
      <trkpt lat="49.12677" lon="-0.66647">
        <ele>105</ele>
        <time>2014-07-21T08:36:24Z</time>
      </trkpt>
      <trkpt lat="49.12679" lon="-0.66756">
        <ele>104</ele>
        <time>2014-07-21T08:36:35Z</time>
      </trkpt>
      <trkpt lat="49.12673" lon="-0.66869">
        <ele>102</ele>
        <time>2014-07-21T08:36:46Z</time>
      </trkpt>
      <trkpt lat="49.12639" lon="-0.66951">
        <ele>104</ele>
        <time>2014-07-21T08:36:57Z</time>
      </trkpt>
      <trkpt lat="49.12604" lon="-0.67032">
        <ele>104</ele>
        <time>2014-07-21T08:37:08Z</time>
      </trkpt>
      <trkpt lat="49.1257" lon="-0.67108">
        <ele>105</ele>
        <time>2014-07-21T08:37:18Z</time>
      </trkpt>
      <trkpt lat="49.12531" lon="-0.67186">
        <ele>104</ele>
        <time>2014-07-21T08:37:28Z</time>
      </trkpt>
      <trkpt lat="49.12486" lon="-0.67266">
        <ele>103</ele>
        <time>2014-07-21T08:37:39Z</time>
      </trkpt>
      <trkpt lat="49.12445" lon="-0.67343">
        <ele>103</ele>
        <time>2014-07-21T08:37:49Z</time>
      </trkpt>
      <trkpt lat="49.12428" lon="-0.67439">
        <ele>103</ele>
        <time>2014-07-21T08:37:59Z</time>
      </trkpt>
      <trkpt lat="49.12395" lon="-0.67509">
        <ele>104</ele>
        <time>2014-07-21T08:38:09Z</time>
      </trkpt>
      <trkpt lat="49.12352" lon="-0.67564">
        <ele>103</ele>
        <time>2014-07-21T08:38:20Z</time>
      </trkpt>
      <trkpt lat="49.12373" lon="-0.6759">
        <ele>102</ele>
        <time>2014-07-21T08:38:30Z</time>
      </trkpt>
      <trkpt lat="49.12451" lon="-0.67586">
        <ele>98</ele>
        <time>2014-07-21T08:38:41Z</time>
      </trkpt>
      <trkpt lat="49.12525" lon="-0.67596">
        <ele>99</ele>
        <time>2014-07-21T08:38:52Z</time>
      </trkpt>
      <trkpt lat="49.12571" lon="-0.67607">
        <ele>102</ele>
        <time>2014-07-21T08:39:03Z</time>
      </trkpt>
      <trkpt lat="49.12606" lon="-0.6763">
        <ele>105</ele>
        <time>2014-07-21T08:39:13Z</time>
      </trkpt>
      <trkpt lat="49.12641" lon="-0.6766">
        <ele>107</ele>
        <time>2014-07-21T08:39:24Z</time>
      </trkpt>
      <trkpt lat="49.12673" lon="-0.67692">
        <ele>110</ele>
        <time>2014-07-21T08:39:34Z</time>
      </trkpt>
      <trkpt lat="49.127" lon="-0.67742">
        <ele>112</ele>
        <time>2014-07-21T08:39:45Z</time>
      </trkpt>
      <trkpt lat="49.12726" lon="-0.67792">
        <ele>114</ele>
        <time>2014-07-21T08:39:56Z</time>
      </trkpt>
      <trkpt lat="49.12767" lon="-0.67817">
        <ele>114</ele>
        <time>2014-07-21T08:40:07Z</time>
      </trkpt>
      <trkpt lat="49.12831" lon="-0.67799">
        <ele>113</ele>
        <time>2014-07-21T08:40:17Z</time>
      </trkpt>
      <trkpt lat="49.12884" lon="-0.67786">
        <ele>113</ele>
        <time>2014-07-21T08:40:28Z</time>
      </trkpt>
      <trkpt lat="49.12924" lon="-0.67778">
        <ele>116</ele>
        <time>2014-07-21T08:40:39Z</time>
      </trkpt>
      <trkpt lat="49.12957" lon="-0.6777">
        <ele>118</ele>
        <time>2014-07-21T08:40:49Z</time>
      </trkpt>
      <trkpt lat="49.12992" lon="-0.67763">
        <ele>120</ele>
        <time>2014-07-21T08:41:00Z</time>
      </trkpt>
      <trkpt lat="49.13023" lon="-0.67754">
        <ele>122</ele>
        <time>2014-07-21T08:41:10Z</time>
      </trkpt>
      <trkpt lat="49.13054" lon="-0.67742">
        <ele>125</ele>
        <time>2014-07-21T08:41:21Z</time>
      </trkpt>
      <trkpt lat="49.13085" lon="-0.67742">
        <ele>127</ele>
        <time>2014-07-21T08:41:31Z</time>
      </trkpt>
      <trkpt lat="49.13119" lon="-0.67745">
        <ele>130</ele>
        <time>2014-07-21T08:41:42Z</time>
      </trkpt>
      <trkpt lat="49.13149" lon="-0.67755">
        <ele>131</ele>
        <time>2014-07-21T08:41:52Z</time>
      </trkpt>
      <trkpt lat="49.13178" lon="-0.6777">
        <ele>133</ele>
        <time>2014-07-21T08:42:02Z</time>
      </trkpt>
      <trkpt lat="49.13211" lon="-0.67792">
        <ele>135</ele>
        <time>2014-07-21T08:42:13Z</time>
      </trkpt>
      <trkpt lat="49.13242" lon="-0.67814">
        <ele>136</ele>
        <time>2014-07-21T08:42:23Z</time>
      </trkpt>
      <trkpt lat="49.13281" lon="-0.67842">
        <ele>138</ele>
        <time>2014-07-21T08:42:34Z</time>
      </trkpt>
      <trkpt lat="49.13322" lon="-0.67869">
        <ele>138</ele>
        <time>2014-07-21T08:42:44Z</time>
      </trkpt>
      <trkpt lat="49.1337" lon="-0.67917">
        <ele>138</ele>
        <time>2014-07-21T08:42:55Z</time>
      </trkpt>
      <trkpt lat="49.13422" lon="-0.67973">
        <ele>138</ele>
        <time>2014-07-21T08:43:06Z</time>
      </trkpt>
      <trkpt lat="49.13475" lon="-0.68031">
        <ele>136</ele>
        <time>2014-07-21T08:43:17Z</time>
      </trkpt>
      <trkpt lat="49.13532" lon="-0.68095">
        <ele>135</ele>
        <time>2014-07-21T08:43:28Z</time>
      </trkpt>
      <trkpt lat="49.13595" lon="-0.6817">
        <ele>132</ele>
        <time>2014-07-21T08:43:39Z</time>
      </trkpt>
      <trkpt lat="49.13664" lon="-0.6824">
        <ele>129</ele>
        <time>2014-07-21T08:43:50Z</time>
      </trkpt>
      <trkpt lat="49.13749" lon="-0.6828">
        <ele>128</ele>
        <time>2014-07-21T08:44:01Z</time>
      </trkpt>
      <trkpt lat="49.13823" lon="-0.68314">
        <ele>128</ele>
        <time>2014-07-21T08:44:11Z</time>
      </trkpt>
      <trkpt lat="49.13894" lon="-0.68347">
        <ele>129</ele>
        <time>2014-07-21T08:44:21Z</time>
      </trkpt>
      <trkpt lat="49.13969" lon="-0.68382">
        <ele>128</ele>
        <time>2014-07-21T08:44:32Z</time>
      </trkpt>
      <trkpt lat="49.14054" lon="-0.6842">
        <ele>125</ele>
        <time>2014-07-21T08:44:43Z</time>
      </trkpt>
      <trkpt lat="49.14144" lon="-0.68462">
        <ele>122</ele>
        <time>2014-07-21T08:44:54Z</time>
      </trkpt>
      <trkpt lat="49.14207" lon="-0.68491">
        <ele>117</ele>
        <time>2014-07-21T08:45:04Z</time>
      </trkpt>
      <trkpt lat="49.14222" lon="-0.68498">
        <ele>115</ele>
        <time>2014-07-21T08:45:14Z</time>
      </trkpt>
      <trkpt lat="49.14222" lon="-0.68499">
        <ele>115</ele>
        <time>2014-07-21T08:45:27Z</time>
      </trkpt>
      <trkpt lat="49.14231" lon="-0.68502">
        <ele>115</ele>
        <time>2014-07-21T08:45:38Z</time>
      </trkpt>
      <trkpt lat="49.14264" lon="-0.6854">
        <ele>116</ele>
        <time>2014-07-21T08:45:48Z</time>
      </trkpt>
      <trkpt lat="49.14322" lon="-0.68599">
        <ele>114</ele>
        <time>2014-07-21T08:45:59Z</time>
      </trkpt>
      <trkpt lat="49.14366" lon="-0.68683">
        <ele>114</ele>
        <time>2014-07-21T08:46:09Z</time>
      </trkpt>
      <trkpt lat="49.14404" lon="-0.68777">
        <ele>114</ele>
        <time>2014-07-21T08:46:19Z</time>
      </trkpt>
      <trkpt lat="49.14451" lon="-0.6887">
        <ele>113</ele>
        <time>2014-07-21T08:46:30Z</time>
      </trkpt>
      <trkpt lat="49.14505" lon="-0.6894">
        <ele>113</ele>
        <time>2014-07-21T08:46:40Z</time>
      </trkpt>
      <trkpt lat="49.14576" lon="-0.68993">
        <ele>110</ele>
        <time>2014-07-21T08:46:51Z</time>
      </trkpt>
      <trkpt lat="49.14651" lon="-0.69008">
        <ele>108</ele>
        <time>2014-07-21T08:47:01Z</time>
      </trkpt>
      <trkpt lat="49.14737" lon="-0.68999">
        <ele>106</ele>
        <time>2014-07-21T08:47:12Z</time>
      </trkpt>
      <trkpt lat="49.14807" lon="-0.68986">
        <ele>107</ele>
        <time>2014-07-21T08:47:22Z</time>
      </trkpt>
      <trkpt lat="49.14874" lon="-0.68971">
        <ele>108</ele>
        <time>2014-07-21T08:47:33Z</time>
      </trkpt>
      <trkpt lat="49.14933" lon="-0.68963">
        <ele>109</ele>
        <time>2014-07-21T08:47:43Z</time>
      </trkpt>
      <trkpt lat="49.14988" lon="-0.68998">
        <ele>111</ele>
        <time>2014-07-21T08:47:54Z</time>
      </trkpt>
      <trkpt lat="49.15016" lon="-0.69071">
        <ele>113</ele>
        <time>2014-07-21T08:48:05Z</time>
      </trkpt>
      <trkpt lat="49.15038" lon="-0.69147">
        <ele>112</ele>
        <time>2014-07-21T08:48:15Z</time>
      </trkpt>
      <trkpt lat="49.15076" lon="-0.6923">
        <ele>111</ele>
        <time>2014-07-21T08:48:26Z</time>
      </trkpt>
      <trkpt lat="49.15122" lon="-0.69304">
        <ele>110</ele>
        <time>2014-07-21T08:48:37Z</time>
      </trkpt>
      <trkpt lat="49.15179" lon="-0.69352">
        <ele>108</ele>
        <time>2014-07-21T08:48:47Z</time>
      </trkpt>
      <trkpt lat="49.15254" lon="-0.69392">
        <ele>107</ele>
        <time>2014-07-21T08:48:58Z</time>
      </trkpt>
      <trkpt lat="49.15325" lon="-0.6941">
        <ele>106</ele>
        <time>2014-07-21T08:49:08Z</time>
      </trkpt>
      <trkpt lat="49.15407" lon="-0.69431">
        <ele>104</ele>
        <time>2014-07-21T08:49:19Z</time>
      </trkpt>
      <trkpt lat="49.15482" lon="-0.69451">
        <ele>103</ele>
        <time>2014-07-21T08:49:29Z</time>
      </trkpt>
      <trkpt lat="49.1556" lon="-0.69478">
        <ele>102</ele>
        <time>2014-07-21T08:49:40Z</time>
      </trkpt>
      <trkpt lat="49.15543" lon="-0.69556">
        <ele>99</ele>
        <time>2014-07-21T08:49:50Z</time>
      </trkpt>
      <trkpt lat="49.15503" lon="-0.69696">
        <ele>95</ele>
        <time>2014-07-21T08:50:01Z</time>
      </trkpt>
      <trkpt lat="49.15521" lon="-0.6982">
        <ele>93</ele>
        <time>2014-07-21T08:50:12Z</time>
      </trkpt>
      <trkpt lat="49.15498" lon="-0.69919">
        <ele>93</ele>
        <time>2014-07-21T08:50:22Z</time>
      </trkpt>
      <trkpt lat="49.15459" lon="-0.70016">
        <ele>93</ele>
        <time>2014-07-21T08:50:33Z</time>
      </trkpt>
      <trkpt lat="49.1542" lon="-0.70097">
        <ele>93</ele>
        <time>2014-07-21T08:50:43Z</time>
      </trkpt>
      <trkpt lat="49.15372" lon="-0.70173">
        <ele>94</ele>
        <time>2014-07-21T08:50:54Z</time>
      </trkpt>
      <trkpt lat="49.15332" lon="-0.70236">
        <ele>95</ele>
        <time>2014-07-21T08:51:04Z</time>
      </trkpt>
      <trkpt lat="49.15294" lon="-0.70309">
        <ele>96</ele>
        <time>2014-07-21T08:51:15Z</time>
      </trkpt>
      <trkpt lat="49.15259" lon="-0.70376">
        <ele>98</ele>
        <time>2014-07-21T08:51:26Z</time>
      </trkpt>
      <trkpt lat="49.15223" lon="-0.70438">
        <ele>100</ele>
        <time>2014-07-21T08:51:37Z</time>
      </trkpt>
      <trkpt lat="49.15191" lon="-0.70491">
        <ele>100</ele>
        <time>2014-07-21T08:51:47Z</time>
      </trkpt>
      <trkpt lat="49.1516" lon="-0.70543">
        <ele>102</ele>
        <time>2014-07-21T08:51:57Z</time>
      </trkpt>
      <trkpt lat="49.15126" lon="-0.70601">
        <ele>104</ele>
        <time>2014-07-21T08:52:08Z</time>
      </trkpt>
      <trkpt lat="49.15092" lon="-0.70656">
        <ele>104</ele>
        <time>2014-07-21T08:52:18Z</time>
      </trkpt>
      <trkpt lat="49.15054" lon="-0.70715">
        <ele>105</ele>
        <time>2014-07-21T08:52:29Z</time>
      </trkpt>
      <trkpt lat="49.15014" lon="-0.70776">
        <ele>106</ele>
        <time>2014-07-21T08:52:40Z</time>
      </trkpt>
      <trkpt lat="49.14974" lon="-0.7083">
        <ele>106</ele>
        <time>2014-07-21T08:52:50Z</time>
      </trkpt>
      <trkpt lat="49.14933" lon="-0.70882">
        <ele>106</ele>
        <time>2014-07-21T08:53:01Z</time>
      </trkpt>
      <trkpt lat="49.14896" lon="-0.70934">
        <ele>108</ele>
        <time>2014-07-21T08:53:11Z</time>
      </trkpt>
      <trkpt lat="49.14864" lon="-0.70989">
        <ele>108</ele>
        <time>2014-07-21T08:53:21Z</time>
      </trkpt>
      <trkpt lat="49.14826" lon="-0.71044">
        <ele>109</ele>
        <time>2014-07-21T08:53:32Z</time>
      </trkpt>
      <trkpt lat="49.14793" lon="-0.7109">
        <ele>110</ele>
        <time>2014-07-21T08:53:42Z</time>
      </trkpt>
      <trkpt lat="49.14764" lon="-0.71131">
        <ele>111</ele>
        <time>2014-07-21T08:53:52Z</time>
      </trkpt>
      <trkpt lat="49.14743" lon="-0.7116">
        <ele>112</ele>
        <time>2014-07-21T08:54:03Z</time>
      </trkpt>
      <trkpt lat="49.14715" lon="-0.71199">
        <ele>113</ele>
        <time>2014-07-21T08:54:13Z</time>
      </trkpt>
      <trkpt lat="49.14685" lon="-0.71237">
        <ele>114</ele>
        <time>2014-07-21T08:54:23Z</time>
      </trkpt>
      <trkpt lat="49.14651" lon="-0.71285">
        <ele>116</ele>
        <time>2014-07-21T08:54:34Z</time>
      </trkpt>
      <trkpt lat="49.14619" lon="-0.7133">
        <ele>117</ele>
        <time>2014-07-21T08:54:44Z</time>
      </trkpt>
      <trkpt lat="49.14584" lon="-0.71378">
        <ele>118</ele>
        <time>2014-07-21T08:54:55Z</time>
      </trkpt>
      <trkpt lat="49.14553" lon="-0.71421">
        <ele>119</ele>
        <time>2014-07-21T08:55:05Z</time>
      </trkpt>
      <trkpt lat="49.1452" lon="-0.71466">
        <ele>121</ele>
        <time>2014-07-21T08:55:16Z</time>
      </trkpt>
      <trkpt lat="49.14489" lon="-0.71509">
        <ele>123</ele>
        <time>2014-07-21T08:55:26Z</time>
      </trkpt>
      <trkpt lat="49.14455" lon="-0.71557">
        <ele>123</ele>
        <time>2014-07-21T08:55:37Z</time>
      </trkpt>
      <trkpt lat="49.14423" lon="-0.71601">
        <ele>125</ele>
        <time>2014-07-21T08:55:47Z</time>
      </trkpt>
      <trkpt lat="49.14389" lon="-0.71649">
        <ele>125</ele>
        <time>2014-07-21T08:55:58Z</time>
      </trkpt>
      <trkpt lat="49.14353" lon="-0.717">
        <ele>127</ele>
        <time>2014-07-21T08:56:09Z</time>
      </trkpt>
      <trkpt lat="49.14318" lon="-0.71746">
        <ele>128</ele>
        <time>2014-07-21T08:56:20Z</time>
      </trkpt>
      <trkpt lat="49.14286" lon="-0.7179">
        <ele>129</ele>
        <time>2014-07-21T08:56:30Z</time>
      </trkpt>
      <trkpt lat="49.14249" lon="-0.71842">
        <ele>130</ele>
        <time>2014-07-21T08:56:41Z</time>
      </trkpt>
      <trkpt lat="49.14217" lon="-0.71887">
        <ele>132</ele>
        <time>2014-07-21T08:56:51Z</time>
      </trkpt>
      <trkpt lat="49.14186" lon="-0.71931">
        <ele>133</ele>
        <time>2014-07-21T08:57:02Z</time>
      </trkpt>
      <trkpt lat="49.14156" lon="-0.71974">
        <ele>134</ele>
        <time>2014-07-21T08:57:13Z</time>
      </trkpt>
      <trkpt lat="49.14125" lon="-0.72015">
        <ele>136</ele>
        <time>2014-07-21T08:57:24Z</time>
      </trkpt>
      <trkpt lat="49.14095" lon="-0.72058">
        <ele>138</ele>
        <time>2014-07-21T08:57:35Z</time>
      </trkpt>
      <trkpt lat="49.14068" lon="-0.72114">
        <ele>138</ele>
        <time>2014-07-21T08:57:46Z</time>
      </trkpt>
      <trkpt lat="49.14042" lon="-0.72174">
        <ele>138</ele>
        <time>2014-07-21T08:57:57Z</time>
      </trkpt>
      <trkpt lat="49.14016" lon="-0.72238">
        <ele>139</ele>
        <time>2014-07-21T08:58:08Z</time>
      </trkpt>
      <trkpt lat="49.13984" lon="-0.72314">
        <ele>138</ele>
        <time>2014-07-21T08:58:19Z</time>
      </trkpt>
      <trkpt lat="49.13952" lon="-0.72388">
        <ele>137</ele>
        <time>2014-07-21T08:58:29Z</time>
      </trkpt>
      <trkpt lat="49.13914" lon="-0.72477">
        <ele>134</ele>
        <time>2014-07-21T08:58:40Z</time>
      </trkpt>
      <trkpt lat="49.13875" lon="-0.72567">
        <ele>133</ele>
        <time>2014-07-21T08:58:50Z</time>
      </trkpt>
      <trkpt lat="49.13827" lon="-0.72667">
        <ele>131</ele>
        <time>2014-07-21T08:59:01Z</time>
      </trkpt>
      <trkpt lat="49.13774" lon="-0.72766">
        <ele>129</ele>
        <time>2014-07-21T08:59:12Z</time>
      </trkpt>
      <trkpt lat="49.13712" lon="-0.72855">
        <ele>127</ele>
        <time>2014-07-21T08:59:23Z</time>
      </trkpt>
      <trkpt lat="49.13669" lon="-0.72938">
        <ele>124</ele>
        <time>2014-07-21T08:59:33Z</time>
      </trkpt>
      <trkpt lat="49.1366" lon="-0.72953">
        <ele>120</ele>
        <time>2014-07-21T08:59:44Z</time>
      </trkpt>
      <trkpt lat="49.13662" lon="-0.72969">
        <ele>120</ele>
        <time>2014-07-21T08:59:54Z</time>
      </trkpt>
      <trkpt lat="49.13679" lon="-0.7303">
        <ele>121</ele>
        <time>2014-07-21T09:00:05Z</time>
      </trkpt>
      <trkpt lat="49.1368" lon="-0.73084">
        <ele>119</ele>
        <time>2014-07-21T09:00:15Z</time>
      </trkpt>
      <trkpt lat="49.13655" lon="-0.73141">
        <ele>117</ele>
        <time>2014-07-21T09:00:26Z</time>
      </trkpt>
      <trkpt lat="49.12701" lon="-0.74506">
        <ele>132</ele>
        <time>2014-07-21T09:00:36Z</time>
      </trkpt>
      <trkpt lat="49.12669" lon="-0.74559">
        <ele>134</ele>
        <time>2014-07-21T09:00:47Z</time>
      </trkpt>
      <trkpt lat="49.12637" lon="-0.74611">
        <ele>135</ele>
        <time>2014-07-21T09:00:58Z</time>
      </trkpt>
      <trkpt lat="49.12602" lon="-0.7467">
        <ele>135</ele>
        <time>2014-07-21T09:01:09Z</time>
      </trkpt>
      <trkpt lat="49.12563" lon="-0.74734">
        <ele>135</ele>
        <time>2014-07-21T09:01:20Z</time>
      </trkpt>
      <trkpt lat="49.1252" lon="-0.74805">
        <ele>134</ele>
        <time>2014-07-21T09:01:31Z</time>
      </trkpt>
      <trkpt lat="49.12471" lon="-0.74887">
        <ele>134</ele>
        <time>2014-07-21T09:01:42Z</time>
      </trkpt>
      <trkpt lat="49.12421" lon="-0.74969">
        <ele>132</ele>
        <time>2014-07-21T09:01:52Z</time>
      </trkpt>
      <trkpt lat="49.12359" lon="-0.7507">
        <ele>129</ele>
        <time>2014-07-21T09:02:03Z</time>
      </trkpt>
      <trkpt lat="49.12294" lon="-0.75177">
        <ele>126</ele>
        <time>2014-07-21T09:02:14Z</time>
      </trkpt>
      <trkpt lat="49.12225" lon="-0.75289">
        <ele>123</ele>
        <time>2014-07-21T09:02:25Z</time>
      </trkpt>
      <trkpt lat="49.12157" lon="-0.754">
        <ele>122</ele>
        <time>2014-07-21T09:02:36Z</time>
      </trkpt>
      <trkpt lat="49.12094" lon="-0.75504">
        <ele>120</ele>
        <time>2014-07-21T09:02:47Z</time>
      </trkpt>
      <trkpt lat="49.1204" lon="-0.75594">
        <ele>120</ele>
        <time>2014-07-21T09:02:58Z</time>
      </trkpt>
      <trkpt lat="49.11996" lon="-0.75666">
        <ele>121</ele>
        <time>2014-07-21T09:03:08Z</time>
      </trkpt>
      <trkpt lat="49.11957" lon="-0.75731">
        <ele>122</ele>
        <time>2014-07-21T09:03:18Z</time>
      </trkpt>
      <trkpt lat="49.11919" lon="-0.75794">
        <ele>123</ele>
        <time>2014-07-21T09:03:29Z</time>
      </trkpt>
      <trkpt lat="49.11884" lon="-0.75852">
        <ele>124</ele>
        <time>2014-07-21T09:03:39Z</time>
      </trkpt>
      <trkpt lat="49.11849" lon="-0.75909">
        <ele>125</ele>
        <time>2014-07-21T09:03:49Z</time>
      </trkpt>
      <trkpt lat="49.1181" lon="-0.75971">
        <ele>126</ele>
        <time>2014-07-21T09:04:00Z</time>
      </trkpt>
      <trkpt lat="49.11773" lon="-0.76034">
        <ele>128</ele>
        <time>2014-07-21T09:04:11Z</time>
      </trkpt>
      <trkpt lat="49.1174" lon="-0.76088">
        <ele>130</ele>
        <time>2014-07-21T09:04:22Z</time>
      </trkpt>
      <trkpt lat="49.11712" lon="-0.76133">
        <ele>131</ele>
        <time>2014-07-21T09:04:32Z</time>
      </trkpt>
      <trkpt lat="49.11682" lon="-0.76184">
        <ele>134</ele>
        <time>2014-07-21T09:04:43Z</time>
      </trkpt>
      <trkpt lat="49.11652" lon="-0.76231">
        <ele>135</ele>
        <time>2014-07-21T09:04:53Z</time>
      </trkpt>
      <trkpt lat="49.11622" lon="-0.76283">
        <ele>138</ele>
        <time>2014-07-21T09:05:04Z</time>
      </trkpt>
      <trkpt lat="49.11595" lon="-0.76328">
        <ele>139</ele>
        <time>2014-07-21T09:05:14Z</time>
      </trkpt>
      <trkpt lat="49.11566" lon="-0.76377">
        <ele>140</ele>
        <time>2014-07-21T09:05:24Z</time>
      </trkpt>
      <trkpt lat="49.11533" lon="-0.76433">
        <ele>140</ele>
        <time>2014-07-21T09:05:35Z</time>
      </trkpt>
      <trkpt lat="49.11501" lon="-0.76484">
        <ele>141</ele>
        <time>2014-07-21T09:05:45Z</time>
      </trkpt>
      <trkpt lat="49.11468" lon="-0.76538">
        <ele>142</ele>
        <time>2014-07-21T09:05:55Z</time>
      </trkpt>
      <trkpt lat="49.1143" lon="-0.76598">
        <ele>143</ele>
        <time>2014-07-21T09:06:06Z</time>
      </trkpt>
      <trkpt lat="49.11396" lon="-0.76652">
        <ele>143</ele>
        <time>2014-07-21T09:06:16Z</time>
      </trkpt>
      <trkpt lat="49.11363" lon="-0.76707">
        <ele>144</ele>
        <time>2014-07-21T09:06:26Z</time>
      </trkpt>
      <trkpt lat="49.11331" lon="-0.76761">
        <ele>146</ele>
        <time>2014-07-21T09:06:36Z</time>
      </trkpt>
      <trkpt lat="49.11295" lon="-0.7682">
        <ele>147</ele>
        <time>2014-07-21T09:06:47Z</time>
      </trkpt>
      <trkpt lat="49.11262" lon="-0.76873">
        <ele>148</ele>
        <time>2014-07-21T09:06:57Z</time>
      </trkpt>
      <trkpt lat="49.11228" lon="-0.76932">
        <ele>151</ele>
        <time>2014-07-21T09:07:08Z</time>
      </trkpt>
      <trkpt lat="49.112" lon="-0.76983">
        <ele>151</ele>
        <time>2014-07-21T09:07:18Z</time>
      </trkpt>
      <trkpt lat="49.11167" lon="-0.77035">
        <ele>152</ele>
        <time>2014-07-21T09:07:29Z</time>
      </trkpt>
      <trkpt lat="49.11134" lon="-0.77089">
        <ele>154</ele>
        <time>2014-07-21T09:07:40Z</time>
      </trkpt>
      <trkpt lat="49.11103" lon="-0.7714">
        <ele>155</ele>
        <time>2014-07-21T09:07:50Z</time>
      </trkpt>
      <trkpt lat="49.11068" lon="-0.77195">
        <ele>157</ele>
        <time>2014-07-21T09:08:01Z</time>
      </trkpt>
      <trkpt lat="49.11035" lon="-0.77248">
        <ele>159</ele>
        <time>2014-07-21T09:08:12Z</time>
      </trkpt>
      <trkpt lat="49.11005" lon="-0.77296">
        <ele>160</ele>
        <time>2014-07-21T09:08:22Z</time>
      </trkpt>
      <trkpt lat="49.10975" lon="-0.77348">
        <ele>160</ele>
        <time>2014-07-21T09:08:33Z</time>
      </trkpt>
      <trkpt lat="49.10945" lon="-0.77397">
        <ele>161</ele>
        <time>2014-07-21T09:08:43Z</time>
      </trkpt>
      <trkpt lat="49.10911" lon="-0.77454">
        <ele>162</ele>
        <time>2014-07-21T09:08:54Z</time>
      </trkpt>
      <trkpt lat="49.10874" lon="-0.77512">
        <ele>163</ele>
        <time>2014-07-21T09:09:05Z</time>
      </trkpt>
      <trkpt lat="49.10836" lon="-0.77574">
        <ele>164</ele>
        <time>2014-07-21T09:09:16Z</time>
      </trkpt>
      <trkpt lat="49.10802" lon="-0.7763">
        <ele>164</ele>
        <time>2014-07-21T09:09:26Z</time>
      </trkpt>
      <trkpt lat="49.10765" lon="-0.77688">
        <ele>165</ele>
        <time>2014-07-21T09:09:37Z</time>
      </trkpt>
      <trkpt lat="49.10729" lon="-0.77746">
        <ele>165</ele>
        <time>2014-07-21T09:09:47Z</time>
      </trkpt>
      <trkpt lat="49.10691" lon="-0.77807">
        <ele>165</ele>
        <time>2014-07-21T09:09:57Z</time>
      </trkpt>
      <trkpt lat="49.10651" lon="-0.77873">
        <ele>165</ele>
        <time>2014-07-21T09:10:07Z</time>
      </trkpt>
      <trkpt lat="49.10611" lon="-0.77941">
        <ele>164</ele>
        <time>2014-07-21T09:10:17Z</time>
      </trkpt>
      <trkpt lat="49.10552" lon="-0.78035">
        <ele>160</ele>
        <time>2014-07-21T09:10:28Z</time>
      </trkpt>
      <trkpt lat="49.10487" lon="-0.7814">
        <ele>156</ele>
        <time>2014-07-21T09:10:38Z</time>
      </trkpt>
      <trkpt lat="49.10421" lon="-0.78253">
        <ele>153</ele>
        <time>2014-07-21T09:10:49Z</time>
      </trkpt>
      <trkpt lat="49.10387" lon="-0.78314">
        <ele>155</ele>
        <time>2014-07-21T09:10:59Z</time>
      </trkpt>
      <trkpt lat="49.10354" lon="-0.78367">
        <ele>158</ele>
        <time>2014-07-21T09:11:10Z</time>
      </trkpt>
      <trkpt lat="49.10326" lon="-0.78413">
        <ele>160</ele>
        <time>2014-07-21T09:11:20Z</time>
      </trkpt>
      <trkpt lat="49.10299" lon="-0.78459">
        <ele>163</ele>
        <time>2014-07-21T09:11:30Z</time>
      </trkpt>
      <trkpt lat="49.10272" lon="-0.78503">
        <ele>164</ele>
        <time>2014-07-21T09:11:40Z</time>
      </trkpt>
      <trkpt lat="49.10244" lon="-0.78548">
        <ele>166</ele>
        <time>2014-07-21T09:11:51Z</time>
      </trkpt>
      <trkpt lat="49.1022" lon="-0.78589">
        <ele>167</ele>
        <time>2014-07-21T09:12:01Z</time>
      </trkpt>
      <trkpt lat="49.10196" lon="-0.7863">
        <ele>168</ele>
        <time>2014-07-21T09:12:11Z</time>
      </trkpt>
      <trkpt lat="49.1017" lon="-0.78672">
        <ele>170</ele>
        <time>2014-07-21T09:12:22Z</time>
      </trkpt>
      <trkpt lat="49.10145" lon="-0.78713">
        <ele>171</ele>
        <time>2014-07-21T09:12:32Z</time>
      </trkpt>
      <trkpt lat="49.10118" lon="-0.78756">
        <ele>173</ele>
        <time>2014-07-21T09:12:43Z</time>
      </trkpt>
      <trkpt lat="49.10094" lon="-0.78794">
        <ele>175</ele>
        <time>2014-07-21T09:12:53Z</time>
      </trkpt>
      <trkpt lat="49.10072" lon="-0.78832">
        <ele>177</ele>
        <time>2014-07-21T09:13:03Z</time>
      </trkpt>
      <trkpt lat="49.10046" lon="-0.78874">
        <ele>179</ele>
        <time>2014-07-21T09:13:14Z</time>
      </trkpt>
      <trkpt lat="49.1002" lon="-0.78916">
        <ele>180</ele>
        <time>2014-07-21T09:13:25Z</time>
      </trkpt>
      <trkpt lat="49.09994" lon="-0.78958">
        <ele>182</ele>
        <time>2014-07-21T09:13:36Z</time>
      </trkpt>
      <trkpt lat="49.09968" lon="-0.79001">
        <ele>184</ele>
        <time>2014-07-21T09:13:47Z</time>
      </trkpt>
      <trkpt lat="49.09945" lon="-0.79038">
        <ele>185</ele>
        <time>2014-07-21T09:13:57Z</time>
      </trkpt>
      <trkpt lat="49.0992" lon="-0.7908">
        <ele>187</ele>
        <time>2014-07-21T09:14:08Z</time>
      </trkpt>
      <trkpt lat="49.09893" lon="-0.79124">
        <ele>189</ele>
        <time>2014-07-21T09:14:19Z</time>
      </trkpt>
      <trkpt lat="49.09868" lon="-0.79167">
        <ele>191</ele>
        <time>2014-07-21T09:14:30Z</time>
      </trkpt>
      <trkpt lat="49.09842" lon="-0.79208">
        <ele>192</ele>
        <time>2014-07-21T09:14:41Z</time>
      </trkpt>
      <trkpt lat="49.0982" lon="-0.79246">
        <ele>194</ele>
        <time>2014-07-21T09:14:51Z</time>
      </trkpt>
      <trkpt lat="49.09794" lon="-0.79288">
        <ele>195</ele>
        <time>2014-07-21T09:15:02Z</time>
      </trkpt>
      <trkpt lat="49.09769" lon="-0.7933">
        <ele>197</ele>
        <time>2014-07-21T09:15:13Z</time>
      </trkpt>
      <trkpt lat="49.09743" lon="-0.79372">
        <ele>199</ele>
        <time>2014-07-21T09:15:24Z</time>
      </trkpt>
      <trkpt lat="49.09718" lon="-0.79413">
        <ele>201</ele>
        <time>2014-07-21T09:15:35Z</time>
      </trkpt>
      <trkpt lat="49.09695" lon="-0.79452">
        <ele>202</ele>
        <time>2014-07-21T09:15:45Z</time>
      </trkpt>
      <trkpt lat="49.09669" lon="-0.79494">
        <ele>204</ele>
        <time>2014-07-21T09:15:56Z</time>
      </trkpt>
      <trkpt lat="49.09643" lon="-0.79537">
        <ele>205</ele>
        <time>2014-07-21T09:16:07Z</time>
      </trkpt>
      <trkpt lat="49.09618" lon="-0.79577">
        <ele>207</ele>
        <time>2014-07-21T09:16:18Z</time>
      </trkpt>
      <trkpt lat="49.09594" lon="-0.79617">
        <ele>208</ele>
        <time>2014-07-21T09:16:29Z</time>
      </trkpt>
      <trkpt lat="49.09569" lon="-0.79655">
        <ele>210</ele>
        <time>2014-07-21T09:16:39Z</time>
      </trkpt>
      <trkpt lat="49.09543" lon="-0.79697">
        <ele>212</ele>
        <time>2014-07-21T09:16:50Z</time>
      </trkpt>
      <trkpt lat="49.09518" lon="-0.79737">
        <ele>214</ele>
        <time>2014-07-21T09:17:01Z</time>
      </trkpt>
      <trkpt lat="49.09495" lon="-0.79777">
        <ele>215</ele>
        <time>2014-07-21T09:17:11Z</time>
      </trkpt>
      <trkpt lat="49.09472" lon="-0.79816">
        <ele>216</ele>
        <time>2014-07-21T09:17:21Z</time>
      </trkpt>
      <trkpt lat="49.09449" lon="-0.79853">
        <ele>218</ele>
        <time>2014-07-21T09:17:31Z</time>
      </trkpt>
      <trkpt lat="49.09424" lon="-0.79893">
        <ele>220</ele>
        <time>2014-07-21T09:17:42Z</time>
      </trkpt>
      <trkpt lat="49.094" lon="-0.79933">
        <ele>221</ele>
        <time>2014-07-21T09:17:53Z</time>
      </trkpt>
      <trkpt lat="49.09377" lon="-0.79971">
        <ele>223</ele>
        <time>2014-07-21T09:18:03Z</time>
      </trkpt>
      <trkpt lat="49.09353" lon="-0.80013">
        <ele>225</ele>
        <time>2014-07-21T09:18:14Z</time>
      </trkpt>
      <trkpt lat="49.0933" lon="-0.80051">
        <ele>227</ele>
        <time>2014-07-21T09:18:24Z</time>
      </trkpt>
      <trkpt lat="49.09306" lon="-0.80091">
        <ele>228</ele>
        <time>2014-07-21T09:18:35Z</time>
      </trkpt>
      <trkpt lat="49.09284" lon="-0.80127">
        <ele>229</ele>
        <time>2014-07-21T09:18:45Z</time>
      </trkpt>
      <trkpt lat="49.09261" lon="-0.80167">
        <ele>231</ele>
        <time>2014-07-21T09:18:56Z</time>
      </trkpt>
      <trkpt lat="49.09241" lon="-0.80197">
        <ele>232</ele>
        <time>2014-07-21T09:19:06Z</time>
      </trkpt>
      <trkpt lat="49.09217" lon="-0.80231">
        <ele>234</ele>
        <time>2014-07-21T09:19:17Z</time>
      </trkpt>
      <trkpt lat="49.0919" lon="-0.8026">
        <ele>236</ele>
        <time>2014-07-21T09:19:28Z</time>
      </trkpt>
      <trkpt lat="49.09166" lon="-0.80285">
        <ele>237</ele>
        <time>2014-07-21T09:19:38Z</time>
      </trkpt>
      <trkpt lat="49.0914" lon="-0.80314">
        <ele>238</ele>
        <time>2014-07-21T09:19:49Z</time>
      </trkpt>
      <trkpt lat="49.09113" lon="-0.80346">
        <ele>240</ele>
        <time>2014-07-21T09:20:00Z</time>
      </trkpt>
      <trkpt lat="49.0909" lon="-0.80379">
        <ele>242</ele>
        <time>2014-07-21T09:20:10Z</time>
      </trkpt>
      <trkpt lat="49.09072" lon="-0.80416">
        <ele>243</ele>
        <time>2014-07-21T09:20:20Z</time>
      </trkpt>
      <trkpt lat="49.09071" lon="-0.80482">
        <ele>242</ele>
        <time>2014-07-21T09:20:31Z</time>
      </trkpt>
      <trkpt lat="49.09066" lon="-0.80558">
        <ele>241</ele>
        <time>2014-07-21T09:20:41Z</time>
      </trkpt>
      <trkpt lat="49.09024" lon="-0.80592">
        <ele>241</ele>
        <time>2014-07-21T09:20:52Z</time>
      </trkpt>
      <trkpt lat="49.08988" lon="-0.80581">
        <ele>241</ele>
        <time>2014-07-21T09:21:02Z</time>
      </trkpt>
      <trkpt lat="49.0894" lon="-0.80589">
        <ele>240</ele>
        <time>2014-07-21T09:21:12Z</time>
      </trkpt>
      <trkpt lat="49.08858" lon="-0.80631">
        <ele>237</ele>
        <time>2014-07-21T09:21:23Z</time>
      </trkpt>
      <trkpt lat="49.08777" lon="-0.80714">
        <ele>232</ele>
        <time>2014-07-21T09:21:33Z</time>
      </trkpt>
      <trkpt lat="49.0869" lon="-0.80805">
        <ele>228</ele>
        <time>2014-07-21T09:21:43Z</time>
      </trkpt>
      <trkpt lat="49.0859" lon="-0.80909">
        <ele>223</ele>
        <time>2014-07-21T09:21:54Z</time>
      </trkpt>
      <trkpt lat="49.08494" lon="-0.81006">
        <ele>215</ele>
        <time>2014-07-21T09:22:04Z</time>
      </trkpt>
      <trkpt lat="49.08386" lon="-0.81103">
        <ele>208</ele>
        <time>2014-07-21T09:22:14Z</time>
      </trkpt>
      <trkpt lat="49.08293" lon="-0.81239">
        <ele>201</ele>
        <time>2014-07-21T09:22:25Z</time>
      </trkpt>
      <trkpt lat="49.08209" lon="-0.81313">
        <ele>197</ele>
        <time>2014-07-21T09:22:35Z</time>
      </trkpt>
      <trkpt lat="49.08135" lon="-0.8139">
        <ele>195</ele>
        <time>2014-07-21T09:22:46Z</time>
      </trkpt>
      <trkpt lat="49.08081" lon="-0.81476">
        <ele>194</ele>
        <time>2014-07-21T09:22:56Z</time>
      </trkpt>
      <trkpt lat="49.08024" lon="-0.81541">
        <ele>195</ele>
        <time>2014-07-21T09:23:06Z</time>
      </trkpt>
      <trkpt lat="49.07976" lon="-0.81616">
        <ele>194</ele>
        <time>2014-07-21T09:23:17Z</time>
      </trkpt>
      <trkpt lat="49.07927" lon="-0.81677">
        <ele>195</ele>
        <time>2014-07-21T09:23:27Z</time>
      </trkpt>
      <trkpt lat="49.07873" lon="-0.81741">
        <ele>195</ele>
        <time>2014-07-21T09:23:38Z</time>
      </trkpt>
      <trkpt lat="49.0782" lon="-0.81798">
        <ele>194</ele>
        <time>2014-07-21T09:23:48Z</time>
      </trkpt>
      <trkpt lat="49.0776" lon="-0.81849">
        <ele>194</ele>
        <time>2014-07-21T09:23:59Z</time>
      </trkpt>
      <trkpt lat="49.07703" lon="-0.81883">
        <ele>193</ele>
        <time>2014-07-21T09:24:09Z</time>
      </trkpt>
      <trkpt lat="49.07638" lon="-0.81919">
        <ele>193</ele>
        <time>2014-07-21T09:24:19Z</time>
      </trkpt>
      <trkpt lat="49.07614" lon="-0.82002">
        <ele>192</ele>
        <time>2014-07-21T09:24:29Z</time>
      </trkpt>
      <trkpt lat="49.07567" lon="-0.82048">
        <ele>192</ele>
        <time>2014-07-21T09:24:40Z</time>
      </trkpt>
      <trkpt lat="49.0751" lon="-0.82058">
        <ele>192</ele>
        <time>2014-07-21T09:24:50Z</time>
      </trkpt>
      <trkpt lat="49.07446" lon="-0.8207">
        <ele>191</ele>
        <time>2014-07-21T09:25:00Z</time>
      </trkpt>
      <trkpt lat="49.07375" lon="-0.82085">
        <ele>189</ele>
        <time>2014-07-21T09:25:10Z</time>
      </trkpt>
      <trkpt lat="49.07286" lon="-0.82108">
        <ele>185</ele>
        <time>2014-07-21T09:25:20Z</time>
      </trkpt>
      <trkpt lat="49.0717" lon="-0.82137">
        <ele>180</ele>
        <time>2014-07-21T09:25:31Z</time>
      </trkpt>
      <trkpt lat="49.07038" lon="-0.8217">
        <ele>172</ele>
        <time>2014-07-21T09:25:42Z</time>
      </trkpt>
      <trkpt lat="49.06909" lon="-0.82202">
        <ele>166</ele>
        <time>2014-07-21T09:25:52Z</time>
      </trkpt>
      <trkpt lat="49.06781" lon="-0.82201">
        <ele>156</ele>
        <time>2014-07-21T09:26:02Z</time>
      </trkpt>
      <trkpt lat="49.06669" lon="-0.82116">
        <ele>149</ele>
        <time>2014-07-21T09:26:13Z</time>
      </trkpt>
      <trkpt lat="49.06582" lon="-0.82074">
        <ele>148</ele>
        <time>2014-07-21T09:26:24Z</time>
      </trkpt>
      <trkpt lat="49.06506" lon="-0.82038">
        <ele>146</ele>
        <time>2014-07-21T09:26:34Z</time>
      </trkpt>
      <trkpt lat="49.06425" lon="-0.81999">
        <ele>145</ele>
        <time>2014-07-21T09:26:45Z</time>
      </trkpt>
      <trkpt lat="49.0635" lon="-0.81978">
        <ele>145</ele>
        <time>2014-07-21T09:26:55Z</time>
      </trkpt>
      <trkpt lat="49.06258" lon="-0.82">
        <ele>141</ele>
        <time>2014-07-21T09:27:06Z</time>
      </trkpt>
      <trkpt lat="49.06184" lon="-0.82052">
        <ele>139</ele>
        <time>2014-07-21T09:27:16Z</time>
      </trkpt>
      <trkpt lat="49.06099" lon="-0.82087">
        <ele>136</ele>
        <time>2014-07-21T09:27:26Z</time>
      </trkpt>
      <trkpt lat="49.05996" lon="-0.82123">
        <ele>134</ele>
        <time>2014-07-21T09:27:37Z</time>
      </trkpt>
      <trkpt lat="49.05908" lon="-0.82154">
        <ele>131</ele>
        <time>2014-07-21T09:27:47Z</time>
      </trkpt>
      <trkpt lat="49.05838" lon="-0.8218">
        <ele>132</ele>
        <time>2014-07-21T09:27:57Z</time>
      </trkpt>
      <trkpt lat="49.05773" lon="-0.82204">
        <ele>132</ele>
        <time>2014-07-21T09:28:07Z</time>
      </trkpt>
      <trkpt lat="49.0572" lon="-0.82222">
        <ele>132</ele>
        <time>2014-07-21T09:28:17Z</time>
      </trkpt>
      <trkpt lat="49.05656" lon="-0.82243">
        <ele>133</ele>
        <time>2014-07-21T09:28:28Z</time>
      </trkpt>
      <trkpt lat="49.05602" lon="-0.82262">
        <ele>135</ele>
        <time>2014-07-21T09:28:38Z</time>
      </trkpt>
      <trkpt lat="49.05549" lon="-0.82281">
        <ele>136</ele>
        <time>2014-07-21T09:28:49Z</time>
      </trkpt>
      <trkpt lat="49.05502" lon="-0.82298">
        <ele>137</ele>
        <time>2014-07-21T09:28:59Z</time>
      </trkpt>
      <trkpt lat="49.05453" lon="-0.82315">
        <ele>138</ele>
        <time>2014-07-21T09:29:10Z</time>
      </trkpt>
      <trkpt lat="49.05408" lon="-0.82332">
        <ele>139</ele>
        <time>2014-07-21T09:29:21Z</time>
      </trkpt>
      <trkpt lat="49.05359" lon="-0.82349">
        <ele>141</ele>
        <time>2014-07-21T09:29:32Z</time>
      </trkpt>
      <trkpt lat="49.05309" lon="-0.82367">
        <ele>141</ele>
        <time>2014-07-21T09:29:43Z</time>
      </trkpt>
      <trkpt lat="49.05263" lon="-0.82383">
        <ele>142</ele>
        <time>2014-07-21T09:29:53Z</time>
      </trkpt>
      <trkpt lat="49.05208" lon="-0.82402">
        <ele>142</ele>
        <time>2014-07-21T09:30:04Z</time>
      </trkpt>
      <trkpt lat="49.05155" lon="-0.8242">
        <ele>142</ele>
        <time>2014-07-21T09:30:14Z</time>
      </trkpt>
      <trkpt lat="49.05102" lon="-0.82439">
        <ele>142</ele>
        <time>2014-07-21T09:30:24Z</time>
      </trkpt>
      <trkpt lat="49.05042" lon="-0.8246">
        <ele>142</ele>
        <time>2014-07-21T09:30:35Z</time>
      </trkpt>
      <trkpt lat="49.04981" lon="-0.8248">
        <ele>141</ele>
        <time>2014-07-21T09:30:45Z</time>
      </trkpt>
      <trkpt lat="49.04912" lon="-0.82482">
        <ele>140</ele>
        <time>2014-07-21T09:30:55Z</time>
      </trkpt>
      <trkpt lat="49.04841" lon="-0.82477">
        <ele>140</ele>
        <time>2014-07-21T09:31:05Z</time>
      </trkpt>
      <trkpt lat="49.04769" lon="-0.82473">
        <ele>140</ele>
        <time>2014-07-21T09:31:15Z</time>
      </trkpt>
      <trkpt lat="49.04701" lon="-0.82467">
        <ele>140</ele>
        <time>2014-07-21T09:31:25Z</time>
      </trkpt>
      <trkpt lat="49.04628" lon="-0.82462">
        <ele>139</ele>
        <time>2014-07-21T09:31:36Z</time>
      </trkpt>
      <trkpt lat="49.04569" lon="-0.82458">
        <ele>140</ele>
        <time>2014-07-21T09:31:46Z</time>
      </trkpt>
      <trkpt lat="49.04517" lon="-0.82455">
        <ele>142</ele>
        <time>2014-07-21T09:31:57Z</time>
      </trkpt>
      <trkpt lat="49.04471" lon="-0.82454">
        <ele>143</ele>
        <time>2014-07-21T09:32:07Z</time>
      </trkpt>
      <trkpt lat="49.04421" lon="-0.82458">
        <ele>145</ele>
        <time>2014-07-21T09:32:18Z</time>
      </trkpt>
      <trkpt lat="49.04377" lon="-0.8247">
        <ele>146</ele>
        <time>2014-07-21T09:32:28Z</time>
      </trkpt>
      <trkpt lat="49.04334" lon="-0.8249">
        <ele>146</ele>
        <time>2014-07-21T09:32:38Z</time>
      </trkpt>
      <trkpt lat="49.04286" lon="-0.82517">
        <ele>148</ele>
        <time>2014-07-21T09:32:49Z</time>
      </trkpt>
      <trkpt lat="49.04238" lon="-0.82546">
        <ele>149</ele>
        <time>2014-07-21T09:33:00Z</time>
      </trkpt>
      <trkpt lat="49.04192" lon="-0.82573">
        <ele>151</ele>
        <time>2014-07-21T09:33:11Z</time>
      </trkpt>
      <trkpt lat="49.04144" lon="-0.82602">
        <ele>152</ele>
        <time>2014-07-21T09:33:22Z</time>
      </trkpt>
      <trkpt lat="49.04103" lon="-0.82627">
        <ele>153</ele>
        <time>2014-07-21T09:33:32Z</time>
      </trkpt>
      <trkpt lat="49.04062" lon="-0.82651">
        <ele>155</ele>
        <time>2014-07-21T09:33:42Z</time>
      </trkpt>
      <trkpt lat="49.04021" lon="-0.82675">
        <ele>156</ele>
        <time>2014-07-21T09:33:52Z</time>
      </trkpt>
      <trkpt lat="49.03974" lon="-0.82703">
        <ele>157</ele>
        <time>2014-07-21T09:34:03Z</time>
      </trkpt>
      <trkpt lat="49.03928" lon="-0.82731">
        <ele>158</ele>
        <time>2014-07-21T09:34:14Z</time>
      </trkpt>
      <trkpt lat="49.0388" lon="-0.82761">
        <ele>158</ele>
        <time>2014-07-21T09:34:25Z</time>
      </trkpt>
      <trkpt lat="49.03835" lon="-0.82787">
        <ele>158</ele>
        <time>2014-07-21T09:34:35Z</time>
      </trkpt>
      <trkpt lat="49.03782" lon="-0.82818">
        <ele>159</ele>
        <time>2014-07-21T09:34:46Z</time>
      </trkpt>
      <trkpt lat="49.03735" lon="-0.82845">
        <ele>159</ele>
        <time>2014-07-21T09:34:56Z</time>
      </trkpt>
      <trkpt lat="49.03681" lon="-0.82875">
        <ele>160</ele>
        <time>2014-07-21T09:35:07Z</time>
      </trkpt>
      <trkpt lat="49.03631" lon="-0.82905">
        <ele>162</ele>
        <time>2014-07-21T09:35:17Z</time>
      </trkpt>
      <trkpt lat="49.03616" lon="-0.82859">
        <ele>162</ele>
        <time>2014-07-21T09:35:28Z</time>
      </trkpt>
      <trkpt lat="49.03625" lon="-0.82795">
        <ele>163</ele>
        <time>2014-07-21T09:35:38Z</time>
      </trkpt>
      <trkpt lat="49.03629" lon="-0.82735">
        <ele>164</ele>
        <time>2014-07-21T09:35:48Z</time>
      </trkpt>
      <trkpt lat="49.03635" lon="-0.82668">
        <ele>165</ele>
        <time>2014-07-21T09:35:59Z</time>
      </trkpt>
      <trkpt lat="49.03642" lon="-0.82609">
        <ele>167</ele>
        <time>2014-07-21T09:36:10Z</time>
      </trkpt>
      <trkpt lat="49.03649" lon="-0.82557">
        <ele>170</ele>
        <time>2014-07-21T09:36:21Z</time>
      </trkpt>
      <trkpt lat="49.03652" lon="-0.82514">
        <ele>173</ele>
        <time>2014-07-21T09:36:31Z</time>
      </trkpt>
      <trkpt lat="49.03659" lon="-0.82476">
        <ele>175</ele>
        <time>2014-07-21T09:36:42Z</time>
      </trkpt>
      <trkpt lat="49.0367" lon="-0.82437">
        <ele>177</ele>
        <time>2014-07-21T09:36:53Z</time>
      </trkpt>
      <trkpt lat="49.03684" lon="-0.82401">
        <ele>178</ele>
        <time>2014-07-21T09:37:03Z</time>
      </trkpt>
      <trkpt lat="49.03703" lon="-0.82355">
        <ele>178</ele>
        <time>2014-07-21T09:37:13Z</time>
      </trkpt>
      <trkpt lat="49.03723" lon="-0.82298">
        <ele>178</ele>
        <time>2014-07-21T09:37:24Z</time>
      </trkpt>
      <trkpt lat="49.03732" lon="-0.8224">
        <ele>179</ele>
        <time>2014-07-21T09:37:35Z</time>
      </trkpt>
      <trkpt lat="49.03737" lon="-0.82187">
        <ele>180</ele>
        <time>2014-07-21T09:37:45Z</time>
      </trkpt>
      <trkpt lat="49.03743" lon="-0.82129">
        <ele>181</ele>
        <time>2014-07-21T09:37:56Z</time>
      </trkpt>
      <trkpt lat="49.03745" lon="-0.82071">
        <ele>181</ele>
        <time>2014-07-21T09:38:06Z</time>
      </trkpt>
      <trkpt lat="49.03749" lon="-0.82007">
        <ele>182</ele>
        <time>2014-07-21T09:38:16Z</time>
      </trkpt>
      <trkpt lat="49.03753" lon="-0.81941">
        <ele>184</ele>
        <time>2014-07-21T09:38:27Z</time>
      </trkpt>
      <trkpt lat="49.03764" lon="-0.81871">
        <ele>184</ele>
        <time>2014-07-21T09:38:38Z</time>
      </trkpt>
      <trkpt lat="49.03778" lon="-0.81798">
        <ele>186</ele>
        <time>2014-07-21T09:38:49Z</time>
      </trkpt>
      <trkpt lat="49.03794" lon="-0.8172">
        <ele>186</ele>
        <time>2014-07-21T09:39:00Z</time>
      </trkpt>
      <trkpt lat="49.03807" lon="-0.81653">
        <ele>187</ele>
        <time>2014-07-21T09:39:10Z</time>
      </trkpt>
      <trkpt lat="49.03818" lon="-0.8158">
        <ele>188</ele>
        <time>2014-07-21T09:39:21Z</time>
      </trkpt>
      <trkpt lat="49.03816" lon="-0.81498">
        <ele>188</ele>
        <time>2014-07-21T09:39:32Z</time>
      </trkpt>
      <trkpt lat="49.03809" lon="-0.81426">
        <ele>189</ele>
        <time>2014-07-21T09:39:42Z</time>
      </trkpt>
      <trkpt lat="49.03813" lon="-0.81352">
        <ele>189</ele>
        <time>2014-07-21T09:39:53Z</time>
      </trkpt>
      <trkpt lat="49.03828" lon="-0.81278">
        <ele>190</ele>
        <time>2014-07-21T09:40:04Z</time>
      </trkpt>
      <trkpt lat="49.03839" lon="-0.81213">
        <ele>191</ele>
        <time>2014-07-21T09:40:14Z</time>
      </trkpt>
      <trkpt lat="49.03849" lon="-0.81128">
        <ele>191</ele>
        <time>2014-07-21T09:40:25Z</time>
      </trkpt>
      <trkpt lat="49.03853" lon="-0.81054">
        <ele>191</ele>
        <time>2014-07-21T09:40:35Z</time>
      </trkpt>
      <trkpt lat="49.03857" lon="-0.80993">
        <ele>193</ele>
        <time>2014-07-21T09:40:45Z</time>
      </trkpt>
      <trkpt lat="49.0387" lon="-0.80949">
        <ele>195</ele>
        <time>2014-07-21T09:40:56Z</time>
      </trkpt>
      <trkpt lat="49.03885" lon="-0.80917">
        <ele>198</ele>
        <time>2014-07-21T09:41:06Z</time>
      </trkpt>
      <trkpt lat="49.039" lon="-0.80888">
        <ele>200</ele>
        <time>2014-07-21T09:41:16Z</time>
      </trkpt>
      <trkpt lat="49.03918" lon="-0.80858">
        <ele>203</ele>
        <time>2014-07-21T09:41:26Z</time>
      </trkpt>
      <trkpt lat="49.03941" lon="-0.8083">
        <ele>204</ele>
        <time>2014-07-21T09:41:37Z</time>
      </trkpt>
      <trkpt lat="49.03999" lon="-0.80823">
        <ele>204</ele>
        <time>2014-07-21T09:41:48Z</time>
      </trkpt>
      <trkpt lat="49.04084" lon="-0.80783">
        <ele>197</ele>
        <time>2014-07-21T09:41:58Z</time>
      </trkpt>
      <trkpt lat="49.04159" lon="-0.80707">
        <ele>188</ele>
        <time>2014-07-21T09:42:08Z</time>
      </trkpt>
      <trkpt lat="49.04227" lon="-0.80644">
        <ele>180</ele>
        <time>2014-07-21T09:42:18Z</time>
      </trkpt>
      <trkpt lat="49.04293" lon="-0.80616">
        <ele>173</ele>
        <time>2014-07-21T09:42:29Z</time>
      </trkpt>
      <trkpt lat="49.04322" lon="-0.80529">
        <ele>175</ele>
        <time>2014-07-21T09:42:40Z</time>
      </trkpt>
      <trkpt lat="49.0435" lon="-0.80451">
        <ele>175</ele>
        <time>2014-07-21T09:42:50Z</time>
      </trkpt>
      <trkpt lat="49.04383" lon="-0.80384">
        <ele>176</ele>
        <time>2014-07-21T09:43:00Z</time>
      </trkpt>
      <trkpt lat="49.04425" lon="-0.80307">
        <ele>175</ele>
        <time>2014-07-21T09:43:11Z</time>
      </trkpt>
      <trkpt lat="49.04444" lon="-0.80222">
        <ele>176</ele>
        <time>2014-07-21T09:43:21Z</time>
      </trkpt>
      <trkpt lat="49.04457" lon="-0.80137">
        <ele>178</ele>
        <time>2014-07-21T09:43:31Z</time>
      </trkpt>
      <trkpt lat="49.04471" lon="-0.80058">
        <ele>179</ele>
        <time>2014-07-21T09:43:41Z</time>
      </trkpt>
      <trkpt lat="49.04485" lon="-0.79977">
        <ele>180</ele>
        <time>2014-07-21T09:43:51Z</time>
      </trkpt>
      <trkpt lat="49.04499" lon="-0.79894">
        <ele>181</ele>
        <time>2014-07-21T09:44:01Z</time>
      </trkpt>
      <trkpt lat="49.04515" lon="-0.79816">
        <ele>183</ele>
        <time>2014-07-21T09:44:11Z</time>
      </trkpt>
      <trkpt lat="49.0453" lon="-0.79746">
        <ele>185</ele>
        <time>2014-07-21T09:44:22Z</time>
      </trkpt>
      <trkpt lat="49.04544" lon="-0.79686">
        <ele>186</ele>
        <time>2014-07-21T09:44:33Z</time>
      </trkpt>
      <trkpt lat="49.0456" lon="-0.79622">
        <ele>188</ele>
        <time>2014-07-21T09:44:43Z</time>
      </trkpt>
      <trkpt lat="49.04581" lon="-0.79557">
        <ele>188</ele>
        <time>2014-07-21T09:44:53Z</time>
      </trkpt>
      <trkpt lat="49.04607" lon="-0.7949">
        <ele>189</ele>
        <time>2014-07-21T09:45:03Z</time>
      </trkpt>
      <trkpt lat="49.04633" lon="-0.79427">
        <ele>189</ele>
        <time>2014-07-21T09:45:13Z</time>
      </trkpt>
      <trkpt lat="49.04673" lon="-0.7936">
        <ele>187</ele>
        <time>2014-07-21T09:45:24Z</time>
      </trkpt>
      <trkpt lat="49.04701" lon="-0.79333">
        <ele>185</ele>
        <time>2014-07-21T09:45:35Z</time>
      </trkpt>
      <trkpt lat="49.04746" lon="-0.7927">
        <ele>184</ele>
        <time>2014-07-21T09:45:46Z</time>
      </trkpt>
      <trkpt lat="49.04797" lon="-0.79198">
        <ele>183</ele>
        <time>2014-07-21T09:45:56Z</time>
      </trkpt>
      <trkpt lat="49.0485" lon="-0.79124">
        <ele>182</ele>
        <time>2014-07-21T09:46:06Z</time>
      </trkpt>
      <trkpt lat="49.04908" lon="-0.79044">
        <ele>180</ele>
        <time>2014-07-21T09:46:17Z</time>
      </trkpt>
      <trkpt lat="49.0496" lon="-0.78955">
        <ele>180</ele>
        <time>2014-07-21T09:46:27Z</time>
      </trkpt>
      <trkpt lat="49.05009" lon="-0.78862">
        <ele>177</ele>
        <time>2014-07-21T09:46:37Z</time>
      </trkpt>
      <trkpt lat="49.05095" lon="-0.7881">
        <ele>176</ele>
        <time>2014-07-21T09:46:48Z</time>
      </trkpt>
      <trkpt lat="49.05175" lon="-0.78755">
        <ele>174</ele>
        <time>2014-07-21T09:46:58Z</time>
      </trkpt>
      <trkpt lat="49.05254" lon="-0.78675">
        <ele>171</ele>
        <time>2014-07-21T09:47:09Z</time>
      </trkpt>
      <trkpt lat="49.05325" lon="-0.78606">
        <ele>171</ele>
        <time>2014-07-21T09:47:19Z</time>
      </trkpt>
      <trkpt lat="49.05387" lon="-0.78526">
        <ele>170</ele>
        <time>2014-07-21T09:47:29Z</time>
      </trkpt>
      <trkpt lat="49.05457" lon="-0.78443">
        <ele>169</ele>
        <time>2014-07-21T09:47:40Z</time>
      </trkpt>
      <trkpt lat="49.05521" lon="-0.78372">
        <ele>168</ele>
        <time>2014-07-21T09:47:50Z</time>
      </trkpt>
      <trkpt lat="49.05591" lon="-0.78302">
        <ele>168</ele>
        <time>2014-07-21T09:48:01Z</time>
      </trkpt>
      <trkpt lat="49.05653" lon="-0.78239">
        <ele>167</ele>
        <time>2014-07-21T09:48:11Z</time>
      </trkpt>
      <trkpt lat="49.05724" lon="-0.7818">
        <ele>167</ele>
        <time>2014-07-21T09:48:22Z</time>
      </trkpt>
      <trkpt lat="49.05782" lon="-0.78119">
        <ele>168</ele>
        <time>2014-07-21T09:48:32Z</time>
      </trkpt>
      <trkpt lat="49.05848" lon="-0.78057">
        <ele>168</ele>
        <time>2014-07-21T09:48:43Z</time>
      </trkpt>
      <trkpt lat="49.05907" lon="-0.78014">
        <ele>169</ele>
        <time>2014-07-21T09:48:53Z</time>
      </trkpt>
      <trkpt lat="49.05971" lon="-0.77968">
        <ele>168</ele>
        <time>2014-07-21T09:49:04Z</time>
      </trkpt>
      <trkpt lat="49.06023" lon="-0.77917">
        <ele>170</ele>
        <time>2014-07-21T09:49:14Z</time>
      </trkpt>
      <trkpt lat="49.06073" lon="-0.77864">
        <ele>170</ele>
        <time>2014-07-21T09:49:24Z</time>
      </trkpt>
      <trkpt lat="49.06124" lon="-0.778">
        <ele>171</ele>
        <time>2014-07-21T09:49:35Z</time>
      </trkpt>
      <trkpt lat="49.06171" lon="-0.77741">
        <ele>170</ele>
        <time>2014-07-21T09:49:45Z</time>
      </trkpt>
      <trkpt lat="49.06212" lon="-0.77686">
        <ele>171</ele>
        <time>2014-07-21T09:49:55Z</time>
      </trkpt>
      <trkpt lat="49.06237" lon="-0.77616">
        <ele>172</ele>
        <time>2014-07-21T09:50:05Z</time>
      </trkpt>
      <trkpt lat="49.06262" lon="-0.77534">
        <ele>172</ele>
        <time>2014-07-21T09:50:16Z</time>
      </trkpt>
      <trkpt lat="49.06289" lon="-0.77454">
        <ele>172</ele>
        <time>2014-07-21T09:50:27Z</time>
      </trkpt>
      <trkpt lat="49.06321" lon="-0.77387">
        <ele>172</ele>
        <time>2014-07-21T09:50:37Z</time>
      </trkpt>
      <trkpt lat="49.0635" lon="-0.77324">
        <ele>172</ele>
        <time>2014-07-21T09:50:47Z</time>
      </trkpt>
      <trkpt lat="49.06378" lon="-0.77267">
        <ele>172</ele>
        <time>2014-07-21T09:50:57Z</time>
      </trkpt>
      <trkpt lat="49.06409" lon="-0.77204">
        <ele>173</ele>
        <time>2014-07-21T09:51:08Z</time>
      </trkpt>
      <trkpt lat="49.06441" lon="-0.77139">
        <ele>173</ele>
        <time>2014-07-21T09:51:19Z</time>
      </trkpt>
      <trkpt lat="49.06474" lon="-0.77072">
        <ele>173</ele>
        <time>2014-07-21T09:51:30Z</time>
      </trkpt>
      <trkpt lat="49.06506" lon="-0.7701">
        <ele>172</ele>
        <time>2014-07-21T09:51:41Z</time>
      </trkpt>
      <trkpt lat="49.06532" lon="-0.76989">
        <ele>172</ele>
        <time>2014-07-21T09:51:52Z</time>
      </trkpt>
      <trkpt lat="49.06551" lon="-0.77034">
        <ele>174</ele>
        <time>2014-07-21T09:52:02Z</time>
      </trkpt>
      <trkpt lat="49.06572" lon="-0.77086">
        <ele>175</ele>
        <time>2014-07-21T09:52:13Z</time>
      </trkpt>
      <trkpt lat="49.06589" lon="-0.77106">
        <ele>177</ele>
        <time>2014-07-21T09:52:14Z</time>
      </trkpt>
    </trkseg>
  </trk>
</gpx>